sensor_id;sensor_type;location;lat;lon;timestamp;pressure;altitude;pressure_sealevel;temperature;humidity
69411;BME280;56604;48.652;9.194;2023-05-19T00:00:50;96691.28;;;11.71;64.78
69411;BME280;56604;48.652;9.194;2023-05-19T00:03:16;96681.81;;;11.70;65.07
69411;BME280;56604;48.652;9.194;2023-05-19T00:05:47;96672.06;;;11.71;64.57
69411;BME280;56604;48.652;9.194;2023-05-19T00:08:15;96680.53;;;11.73;65.04
69411;BME280;56604;48.652;9.194;2023-05-19T00:10:41;96675.19;;;11.68;65.03
69411;BME280;56604;48.652;9.194;2023-05-19T00:13:07;96664.97;;;11.71;65.40
69411;BME280;56604;48.652;9.194;2023-05-19T00:15:32;96661.66;;;11.59;65.00
69411;BME280;56604;48.652;9.194;2023-05-19T00:17:58;96663.88;;;11.67;64.69
69411;BME280;56604;48.652;9.194;2023-05-19T00:20:23;96657.47;;;11.63;64.79
69411;BME280;56604;48.652;9.194;2023-05-19T00:22:48;96665.38;;;11.63;64.62
69411;BME280;56604;48.652;9.194;2023-05-19T00:25:15;96657.47;;;11.63;65.10
69411;BME280;56604;48.652;9.194;2023-05-19T00:27:40;96658.81;;;11.66;64.42
69411;BME280;56604;48.652;9.194;2023-05-19T00:30:06;96656.69;;;11.63;64.74
69411;BME280;56604;48.652;9.194;2023-05-19T00:32:32;96654.31;;;11.61;64.56
69411;BME280;56604;48.652;9.194;2023-05-19T00:34:58;96659.09;;;11.64;64.31
69411;BME280;56604;48.652;9.194;2023-05-19T00:37:23;96653.25;;;11.62;64.72
69411;BME280;56604;48.652;9.194;2023-05-19T00:39:49;96655.34;;;11.60;64.91
69411;BME280;56604;48.652;9.194;2023-05-19T00:42:14;96665.81;;;11.55;65.60
69411;BME280;56604;48.652;9.194;2023-05-19T00:44:40;96663.13;;;11.50;65.42
69411;BME280;56604;48.652;9.194;2023-05-19T00:47:06;96652.91;;;11.54;65.60
69411;BME280;56604;48.652;9.194;2023-05-19T00:49:31;96661.03;;;11.52;65.75
69411;BME280;56604;48.652;9.194;2023-05-19T00:51:57;96657.88;;;11.50;66.29
69411;BME280;56604;48.652;9.194;2023-05-19T00:54:23;96658.34;;;11.47;66.71
69411;BME280;56604;48.652;9.194;2023-05-19T00:56:49;96657.78;;;11.45;67.01
69411;BME280;56604;48.652;9.194;2023-05-19T00:59:15;96658.34;;;11.47;67.22
69411;BME280;56604;48.652;9.194;2023-05-19T01:01:40;96660.56;;;11.38;67.70
69411;BME280;56604;48.652;9.194;2023-05-19T01:04:06;96654.59;;;11.43;67.78
69411;BME280;56604;48.652;9.194;2023-05-19T01:06:35;96648.78;;;11.41;68.21
69411;BME280;56604;48.652;9.194;2023-05-19T01:09:03;96645.59;;;11.39;68.10
69411;BME280;56604;48.652;9.194;2023-05-19T01:11:28;96642.66;;;11.35;68.34
69411;BME280;56604;48.652;9.194;2023-05-19T01:13:54;96643.19;;;11.37;68.71
69411;BME280;56604;48.652;9.194;2023-05-19T01:16:42;96640.50;;;11.32;68.71
69411;BME280;56604;48.652;9.194;2023-05-19T01:25:18;96650.13;;;11.21;68.88
69411;BME280;56604;48.652;9.194;2023-05-19T01:30:47;96658.91;;;11.10;69.33
69411;BME280;56604;48.652;9.194;2023-05-19T01:33:45;96656.81;;;11.12;68.62
69411;BME280;56604;48.652;9.194;2023-05-19T01:36:11;96654.44;;;11.11;68.83
69411;BME280;56604;48.652;9.194;2023-05-19T01:38:38;96664.16;;;11.10;69.30
69411;BME280;56604;48.652;9.194;2023-05-19T01:41:05;96663.84;;;11.07;69.12
69411;BME280;56604;48.652;9.194;2023-05-19T01:43:32;96665.75;;;11.11;69.29
69411;BME280;56604;48.652;9.194;2023-05-19T01:45:57;96654.13;;;11.07;69.27
69411;BME280;56604;48.652;9.194;2023-05-19T01:48:23;96655.41;;;11.05;69.54
69411;BME280;56604;48.652;9.194;2023-05-19T01:50:49;96655.94;;;11.07;69.78
69411;BME280;56604;48.652;9.194;2023-05-19T01:53:14;96651.41;;;11.02;70.18
69411;BME280;56604;48.652;9.194;2023-05-19T01:55:46;96649.50;;;10.97;69.73
69411;BME280;56604;48.652;9.194;2023-05-19T01:58:23;96658.75;;;11.00;70.07
69411;BME280;56604;48.652;9.194;2023-05-19T02:03:47;96644.94;;;10.93;69.82
69411;BME280;56604;48.652;9.194;2023-05-19T02:06:21;96649.19;;;10.94;70.44
69411;BME280;56604;48.652;9.194;2023-05-19T02:14:37;96652.22;;;10.86;70.89
69411;BME280;56604;48.652;9.194;2023-05-19T02:17:03;96652.72;;;10.83;70.56
69411;BME280;56604;48.652;9.194;2023-05-19T02:19:31;96650.88;;;10.83;70.50
69411;BME280;56604;48.652;9.194;2023-05-19T02:21:57;96661.16;;;10.85;70.68
69411;BME280;56604;48.652;9.194;2023-05-19T02:24:23;96650.31;;;10.81;70.66
69411;BME280;56604;48.652;9.194;2023-05-19T02:26:52;96661.63;;;10.82;70.64
69411;BME280;56604;48.652;9.194;2023-05-19T02:29:18;96650.63;;;10.85;70.29
69411;BME280;56604;48.652;9.194;2023-05-19T02:31:44;96651.56;;;10.78;70.25
69411;BME280;56604;48.652;9.194;2023-05-19T02:34:10;96648.41;;;10.76;70.14
69411;BME280;56604;48.652;9.194;2023-05-19T02:36:35;96650.00;;;10.77;70.54
69411;BME280;56604;48.652;9.194;2023-05-19T02:39:01;96653.50;;;10.83;69.85
69411;BME280;56604;48.652;9.194;2023-05-19T02:41:27;96646.78;;;10.75;70.31
69411;BME280;56604;48.652;9.194;2023-05-19T02:43:52;96650.47;;;10.74;70.46
69411;BME280;56604;48.652;9.194;2023-05-19T02:46:17;96646.09;;;10.63;71.18
69411;BME280;56604;48.652;9.194;2023-05-19T02:48:43;96648.72;;;10.63;71.16
69411;BME280;56604;48.652;9.194;2023-05-19T02:51:08;96640.53;;;10.60;71.19
69411;BME280;56604;48.652;9.194;2023-05-19T02:53:34;96648.72;;;10.63;71.01
69411;BME280;56604;48.652;9.194;2023-05-19T02:56:00;96642.09;;;10.61;71.88
69411;BME280;56604;48.652;9.194;2023-05-19T02:58:25;96635.97;;;10.55;71.41
69411;BME280;56604;48.652;9.194;2023-05-19T03:00:50;96636.22;;;10.53;71.28
69411;BME280;56604;48.652;9.194;2023-05-19T03:03:16;96643.06;;;10.54;70.60
69411;BME280;56604;48.652;9.194;2023-05-19T03:05:42;96644.41;;;10.57;71.05
69411;BME280;56604;48.652;9.194;2023-05-19T03:08:07;96637.22;;;10.52;71.28
69411;BME280;56604;48.652;9.194;2023-05-19T03:10:33;96631.97;;;10.52;71.32
69411;BME280;56604;48.652;9.194;2023-05-19T03:12:58;96642.97;;;10.49;71.63
69411;BME280;56604;48.652;9.194;2023-05-19T03:15:23;96637.41;;;10.46;71.07
69411;BME280;56604;48.652;9.194;2023-05-19T03:17:49;96637.09;;;10.42;71.31
69411;BME280;56604;48.652;9.194;2023-05-19T03:20:14;96642.09;;;10.44;70.89
69411;BME280;56604;48.652;9.194;2023-05-19T03:22:40;96642.66;;;10.46;70.92
69411;BME280;56604;48.652;9.194;2023-05-19T03:25:05;96638.19;;;10.46;70.91
69411;BME280;56604;48.652;9.194;2023-05-19T03:27:31;96644.25;;;10.47;70.97
69411;BME280;56604;48.652;9.194;2023-05-19T03:29:56;96642.88;;;10.44;71.29
69411;BME280;56604;48.652;9.194;2023-05-19T03:32:21;96645.50;;;10.44;71.34
69411;BME280;56604;48.652;9.194;2023-05-19T03:34:47;96640.25;;;10.44;71.26
69411;BME280;56604;48.652;9.194;2023-05-19T03:37:12;96636.28;;;10.42;71.59
69411;BME280;56604;48.652;9.194;2023-05-19T03:39:37;96637.31;;;10.41;71.30
69411;BME280;56604;48.652;9.194;2023-05-19T03:42:03;96635.25;;;10.43;71.57
69411;BME280;56604;48.652;9.194;2023-05-19T03:44:28;96633.66;;;10.42;71.23
69411;BME280;56604;48.652;9.194;2023-05-19T03:46:54;96642.00;;;10.39;71.60
69411;BME280;56604;48.652;9.194;2023-05-19T03:49:19;96633.78;;;10.35;72.19
69411;BME280;56604;48.652;9.194;2023-05-19T03:51:44;96638.47;;;10.33;72.18
69411;BME280;56604;48.652;9.194;2023-05-19T03:54:10;96638.16;;;10.29;72.28
69411;BME280;56604;48.652;9.194;2023-05-19T03:56:38;96640.66;;;10.24;72.02
69411;BME280;56604;48.652;9.194;2023-05-19T03:59:03;96639.09;;;10.23;71.94
69411;BME280;56604;48.652;9.194;2023-05-19T04:01:31;96639.09;;;10.23;71.72
69411;BME280;56604;48.652;9.194;2023-05-19T04:03:56;96640.66;;;10.24;71.50
69411;BME280;56604;48.652;9.194;2023-05-19T04:06:22;96641.50;;;10.25;72.38
69411;BME280;56604;48.652;9.194;2023-05-19T04:08:47;96635.34;;;10.19;71.30
69411;BME280;56604;48.652;9.194;2023-05-19T04:11:13;96644.34;;;10.23;71.42
69411;BME280;56604;48.652;9.194;2023-05-19T04:13:38;96645.47;;;10.27;71.08
69411;BME280;56604;48.652;9.194;2023-05-19T04:16:04;96644.78;;;10.32;71.37
69411;BME280;56604;48.652;9.194;2023-05-19T04:18:30;96642.47;;;10.35;71.19
69411;BME280;56604;48.652;9.194;2023-05-19T04:20:55;96644.09;;;10.37;71.08
69411;BME280;56604;48.652;9.194;2023-05-19T04:23:20;96642.16;;;10.32;70.54
69411;BME280;56604;48.652;9.194;2023-05-19T04:25:46;96646.16;;;10.34;71.44
69411;BME280;56604;48.652;9.194;2023-05-19T04:28:13;96648.56;;;10.36;71.05
69411;BME280;56604;48.652;9.194;2023-05-19T04:30:39;96656.03;;;10.44;71.27
69411;BME280;56604;48.652;9.194;2023-05-19T04:33:04;96650.53;;;10.46;71.33
69411;BME280;56604;48.652;9.194;2023-05-19T04:35:31;96653.06;;;10.41;70.97
69411;BME280;56604;48.652;9.194;2023-05-19T04:37:57;96643.53;;;10.51;70.50
69411;BME280;56604;48.652;9.194;2023-05-19T04:40:22;96648.53;;;10.53;69.87
69411;BME280;56604;48.652;9.194;2023-05-19T04:42:48;96645.53;;;10.61;70.25
69411;BME280;56604;48.652;9.194;2023-05-19T04:45:14;96653.97;;;10.63;70.47
69411;BME280;56604;48.652;9.194;2023-05-19T04:47:40;96647.75;;;10.69;69.90
69411;BME280;56604;48.652;9.194;2023-05-19T04:50:06;96650.56;;;10.79;70.32
69411;BME280;56604;48.652;9.194;2023-05-19T04:52:32;96647.91;;;10.96;69.98
69411;BME280;56604;48.652;9.194;2023-05-19T04:54:58;96651.44;;;10.85;68.99
69411;BME280;56604;48.652;9.194;2023-05-19T04:57:23;96654.28;;;11.00;68.99
69411;BME280;56604;48.652;9.194;2023-05-19T04:59:48;96646.28;;;11.12;68.44
69411;BME280;56604;48.652;9.194;2023-05-19T05:02:14;96645.03;;;11.37;68.61
69411;BME280;56604;48.652;9.194;2023-05-19T05:04:40;96646.88;;;11.36;68.10
69411;BME280;56604;48.652;9.194;2023-05-19T05:07:08;96650.44;;;11.47;67.29
69411;BME280;56604;48.652;9.194;2023-05-19T05:09:34;96646.66;;;11.60;67.19
69411;BME280;56604;48.652;9.194;2023-05-19T05:12:00;96655.66;;;11.86;65.99
69411;BME280;56604;48.652;9.194;2023-05-19T05:14:26;96652.41;;;12.01;65.85
69411;BME280;56604;48.652;9.194;2023-05-19T05:16:51;96650.31;;;11.81;65.92
69411;BME280;56604;48.652;9.194;2023-05-19T05:19:17;96647.00;;;11.68;65.93
69411;BME280;56604;48.652;9.194;2023-05-19T05:21:43;96645.59;;;11.83;65.14
69411;BME280;56604;48.652;9.194;2023-05-19T05:24:09;96658.50;;;12.01;64.20
69411;BME280;56604;48.652;9.194;2023-05-19T05:26:35;96645.94;;;12.41;63.08
69411;BME280;56604;48.652;9.194;2023-05-19T05:29:01;96649.16;;;12.80;62.12
69411;BME280;56604;48.652;9.194;2023-05-19T05:31:27;96652.63;;;13.23;59.95
69411;BME280;56604;48.652;9.194;2023-05-19T05:33:52;96643.19;;;14.00;58.83
69411;BME280;56604;48.652;9.194;2023-05-19T05:36:18;96648.22;;;13.97;58.39
69411;BME280;56604;48.652;9.194;2023-05-19T05:38:43;96640.66;;;14.56;56.62
69411;BME280;56604;48.652;9.194;2023-05-19T05:41:08;96642.94;;;14.02;58.35
69411;BME280;56604;48.652;9.194;2023-05-19T05:43:34;96649.16;;;14.69;57.05
69411;BME280;56604;48.652;9.194;2023-05-19T05:45:59;96645.09;;;15.33;54.92
69411;BME280;56604;48.652;9.194;2023-05-19T05:48:25;96650.09;;;15.49;54.33
69411;BME280;56604;48.652;9.194;2023-05-19T05:50:51;96642.81;;;16.30;51.39
69411;BME280;56604;48.652;9.194;2023-05-19T05:53:18;96647.13;;;16.26;51.94
69411;BME280;56604;48.652;9.194;2023-05-19T05:55:45;96652.00;;;16.09;51.77
69411;BME280;56604;48.652;9.194;2023-05-19T05:58:11;96664.59;;;15.67;52.58
69411;BME280;56604;48.652;9.194;2023-05-19T06:00:37;96656.66;;;15.67;52.68
69411;BME280;56604;48.652;9.194;2023-05-19T06:03:02;96656.13;;;15.70;53.22
69411;BME280;56604;48.652;9.194;2023-05-19T06:05:28;96654.53;;;15.64;53.64
69411;BME280;56604;48.652;9.194;2023-05-19T06:07:53;96646.50;;;15.95;53.78
69411;BME280;56604;48.652;9.194;2023-05-19T06:10:19;96649.84;;;16.55;52.37
69411;BME280;56604;48.652;9.194;2023-05-19T06:12:44;96658.88;;;16.54;51.11
69411;BME280;56604;48.652;9.194;2023-05-19T06:15:09;96654.31;;;16.21;53.79
69411;BME280;56604;48.652;9.194;2023-05-19T06:17:35;96659.84;;;16.24;52.37
69411;BME280;56604;48.652;9.194;2023-05-19T06:20:01;96649.13;;;16.00;53.21
69411;BME280;56604;48.652;9.194;2023-05-19T06:22:27;96651.97;;;15.34;54.47
69411;BME280;56604;48.652;9.194;2023-05-19T06:24:52;96648.28;;;15.35;54.93
69411;BME280;56604;48.652;9.194;2023-05-19T06:27:18;96644.59;;;15.15;56.71
69411;BME280;56604;48.652;9.194;2023-05-19T06:29:43;96637.97;;;15.98;54.85
69411;BME280;56604;48.652;9.194;2023-05-19T06:32:08;96650.97;;;15.09;55.51
69411;BME280;56604;48.652;9.194;2023-05-19T06:34:34;96648.81;;;14.19;58.09
69411;BME280;56604;48.652;9.194;2023-05-19T06:36:59;96654.13;;;14.45;58.26
69411;BME280;56604;48.652;9.194;2023-05-19T06:39:26;96652.50;;;14.28;58.24
69411;BME280;56604;48.652;9.194;2023-05-19T06:41:51;96654.13;;;14.39;57.96
69411;BME280;56604;48.652;9.194;2023-05-19T06:44:17;96649.63;;;14.50;57.32
69411;BME280;56604;48.652;9.194;2023-05-19T06:46:42;96653.06;;;14.35;59.35
69411;BME280;56604;48.652;9.194;2023-05-19T06:49:09;96650.31;;;15.63;56.72
69411;BME280;56604;48.652;9.194;2023-05-19T06:51:34;96645.50;;;15.76;53.84
69411;BME280;56604;48.652;9.194;2023-05-19T06:53:59;96645.34;;;15.46;54.86
69411;BME280;56604;48.652;9.194;2023-05-19T06:56:25;96652.50;;;15.30;56.10
69411;BME280;56604;48.652;9.194;2023-05-19T06:58:50;96658.88;;;14.27;57.77
69411;BME280;56604;48.652;9.194;2023-05-19T07:01:15;96655.69;;;14.30;59.21
69411;BME280;56604;48.652;9.194;2023-05-19T07:03:41;96654.22;;;13.77;58.55
69411;BME280;56604;48.652;9.194;2023-05-19T07:06:06;96652.53;;;13.50;59.92
69411;BME280;56604;48.652;9.194;2023-05-19T07:08:31;96651.81;;;13.22;61.84
69411;BME280;56604;48.652;9.194;2023-05-19T07:10:57;96647.81;;;13.10;62.66
69411;BME280;56604;48.652;9.194;2023-05-19T07:13:22;96680.00;;;13.07;61.22
69411;BME280;56604;48.652;9.194;2023-05-19T07:15:48;96664.06;;;12.96;61.04
69411;BME280;56604;48.652;9.194;2023-05-19T07:18:14;96659.06;;;13.00;61.59
69411;BME280;56604;48.652;9.194;2023-05-19T07:20:39;96666.97;;;13.32;60.12
69411;BME280;56604;48.652;9.194;2023-05-19T07:23:05;96659.19;;;13.58;59.86
69411;BME280;56604;48.652;9.194;2023-05-19T07:25:30;96648.38;;;13.64;59.35
69411;BME280;56604;48.652;9.194;2023-05-19T07:27:55;96659.56;;;13.34;60.63
69411;BME280;56604;48.652;9.194;2023-05-19T07:30:21;96653.25;;;13.40;61.01
69411;BME280;56604;48.652;9.194;2023-05-19T07:32:46;96653.38;;;13.61;60.34
69411;BME280;56604;48.652;9.194;2023-05-19T07:35:12;96641.38;;;14.01;60.94
69411;BME280;56604;48.652;9.194;2023-05-19T07:37:37;96633.94;;;13.92;59.12
69411;BME280;56604;48.652;9.194;2023-05-19T07:40:03;96645.88;;;14.15;59.51
69411;BME280;56604;48.652;9.194;2023-05-19T07:42:28;96639.66;;;13.64;59.56
69411;BME280;56604;48.652;9.194;2023-05-19T07:44:54;96647.44;;;13.33;61.27
69411;BME280;56604;48.652;9.194;2023-05-19T07:47:19;96643.81;;;13.55;60.24
69411;BME280;56604;48.652;9.194;2023-05-19T07:49:44;96650.13;;;13.48;59.90
69411;BME280;56604;48.652;9.194;2023-05-19T07:52:10;96646.88;;;13.31;61.50
69411;BME280;56604;48.652;9.194;2023-05-19T07:54:35;96654.66;;;13.11;61.50
69411;BME280;56604;48.652;9.194;2023-05-19T07:57:00;96643.28;;;13.05;61.98
69411;BME280;56604;48.652;9.194;2023-05-19T07:59:26;96648.88;;;13.14;62.24
69411;BME280;56604;48.652;9.194;2023-05-19T08:01:52;96647.75;;;13.04;62.25
69411;BME280;56604;48.652;9.194;2023-05-19T08:04:17;96638.47;;;12.97;62.59
69411;BME280;56604;48.652;9.194;2023-05-19T08:06:42;96638.31;;;12.76;62.55
69411;BME280;56604;48.652;9.194;2023-05-19T08:09:08;96631.88;;;12.99;63.67
69411;BME280;56604;48.652;9.194;2023-05-19T08:11:34;96628.03;;;13.12;62.05
69411;BME280;56604;48.652;9.194;2023-05-19T08:13:59;96643.50;;;12.98;62.58
69411;BME280;56604;48.652;9.194;2023-05-19T08:16:25;96636.16;;;13.05;62.55
69411;BME280;56604;48.652;9.194;2023-05-19T08:18:50;96633.03;;;13.14;62.00
69411;BME280;56604;48.652;9.194;2023-05-19T08:21:16;96631.66;;;13.06;63.18
69411;BME280;56604;48.652;9.194;2023-05-19T08:23:41;96631.34;;;13.40;61.80
69411;BME280;56604;48.652;9.194;2023-05-19T08:26:06;96633.22;;;13.44;61.90
69411;BME280;56604;48.652;9.194;2023-05-19T08:28:32;96622.69;;;13.49;61.96
69411;BME280;56604;48.652;9.194;2023-05-19T08:30:57;96624.72;;;13.32;61.72
69411;BME280;56604;48.652;9.194;2023-05-19T08:33:22;96624.38;;;13.23;61.61
69411;BME280;56604;48.652;9.194;2023-05-19T08:35:48;96621.63;;;13.50;60.86
69411;BME280;56604;48.652;9.194;2023-05-19T08:38:13;96614.25;;;13.53;61.62
69411;BME280;56604;48.652;9.194;2023-05-19T08:40:42;96622.59;;;13.34;60.82
69411;BME280;56604;48.652;9.194;2023-05-19T08:43:10;96617.47;;;13.17;61.60
69411;BME280;56604;48.652;9.194;2023-05-19T08:45:36;96612.03;;;13.29;62.60
69411;BME280;56604;48.652;9.194;2023-05-19T08:48:04;96621.97;;;13.17;61.25
69411;BME280;56604;48.652;9.194;2023-05-19T08:50:33;96613.56;;;13.25;61.00
69411;BME280;56604;48.652;9.194;2023-05-19T08:53:05;96616.03;;;13.42;61.74
69411;BME280;56604;48.652;9.194;2023-05-19T08:55:55;96610.53;;;13.54;60.27
69411;BME280;56604;48.652;9.194;2023-05-19T08:58:23;96615.38;;;13.77;61.58
69411;BME280;56604;48.652;9.194;2023-05-19T09:00:49;96616.91;;;13.58;61.57
69411;BME280;56604;48.652;9.194;2023-05-19T09:03:15;96614.59;;;13.82;60.95
69411;BME280;56604;48.652;9.194;2023-05-19T09:05:42;96622.41;;;13.51;59.78
69411;BME280;56604;48.652;9.194;2023-05-19T09:08:08;96608.06;;;13.32;60.10
69411;BME280;56604;48.652;9.194;2023-05-19T09:10:33;96616.25;;;13.30;60.55
69411;BME280;56604;48.652;9.194;2023-05-19T09:12:58;96606.25;;;13.37;60.90
69411;BME280;56604;48.652;9.194;2023-05-19T09:15:27;96607.84;;;13.38;60.38
69411;BME280;56604;48.652;9.194;2023-05-19T09:18:22;96607.22;;;13.21;61.33
69411;BME280;56604;48.652;9.194;2023-05-19T09:20:48;96616.47;;;13.23;61.46
69411;BME280;56604;48.652;9.194;2023-05-19T09:23:14;96612.44;;;13.11;61.82
69411;BME280;56604;48.652;9.194;2023-05-19T09:25:46;96610.22;;;12.97;61.98
69411;BME280;56604;48.652;9.194;2023-05-19T09:28:11;96608.41;;;12.98;61.70
69411;BME280;56604;48.652;9.194;2023-05-19T09:30:37;96611.91;;;13.14;61.50
69411;BME280;56604;48.652;9.194;2023-05-19T09:33:03;96618.28;;;13.18;61.28
69411;BME280;56604;48.652;9.194;2023-05-19T09:35:33;96624.78;;;13.05;61.53
69411;BME280;56604;48.652;9.194;2023-05-19T09:37:59;96614.97;;;12.95;61.41
69411;BME280;56604;48.652;9.194;2023-05-19T09:40:26;96613.28;;;13.21;60.82
69411;BME280;56604;48.652;9.194;2023-05-19T09:42:52;96602.53;;;13.33;62.09
69411;BME280;56604;48.652;9.194;2023-05-19T09:45:18;96597.00;;;13.40;60.66
69411;BME280;56604;48.652;9.194;2023-05-19T09:47:44;96607.94;;;13.59;61.27
69411;BME280;56604;48.652;9.194;2023-05-19T09:50:11;96600.75;;;13.44;60.07
69411;BME280;56604;48.652;9.194;2023-05-19T09:52:43;96602.53;;;13.33;60.23
69411;BME280;56604;48.652;9.194;2023-05-19T09:55:11;96601.19;;;13.25;61.89
69411;BME280;56604;48.652;9.194;2023-05-19T09:57:37;96601.84;;;13.05;62.14
69411;BME280;56604;48.652;9.194;2023-05-19T10:00:07;96596.59;;;13.11;61.80
69411;BME280;56604;48.652;9.194;2023-05-19T10:02:40;96604.84;;;13.24;62.22
69411;BME280;56604;48.652;9.194;2023-05-19T10:05:09;96602.19;;;13.19;61.39
69411;BME280;56604;48.652;9.194;2023-05-19T10:07:35;96593.56;;;13.34;62.64
69411;BME280;56604;48.652;9.194;2023-05-19T10:10:01;96600.97;;;13.37;60.54
69411;BME280;56604;48.652;9.194;2023-05-19T10:12:27;96595.16;;;13.40;60.74
69411;BME280;56604;48.652;9.194;2023-05-19T10:14:53;96599.38;;;13.36;62.81
69411;BME280;56604;48.652;9.194;2023-05-19T10:17:19;96607.84;;;13.38;61.43
69411;BME280;56604;48.652;9.194;2023-05-19T10:19:44;96604.13;;;13.29;61.39
69411;BME280;56604;48.652;9.194;2023-05-19T10:22:11;96608.72;;;13.07;61.66
69411;BME280;56604;48.652;9.194;2023-05-19T10:24:37;96618.13;;;12.97;62.10
69411;BME280;56604;48.652;9.194;2023-05-19T10:27:06;96608.88;;;13.32;62.05
69411;BME280;56604;48.652;9.194;2023-05-19T10:29:35;96602.59;;;13.43;60.29
69411;BME280;56604;48.652;9.194;2023-05-19T10:32:13;96600.28;;;13.62;61.76
69411;BME280;56604;48.652;9.194;2023-05-19T10:38:04;96602.44;;;13.18;60.87
69411;BME280;56604;48.652;9.194;2023-05-19T10:40:36;96598.31;;;13.32;61.87
69411;BME280;56604;48.652;9.194;2023-05-19T10:43:25;96599.53;;;13.19;60.85
69411;BME280;56604;48.652;9.194;2023-05-19T10:45:56;96598.16;;;13.12;60.56
69411;BME280;56604;48.652;9.194;2023-05-19T10:48:21;96598.22;;;13.22;61.10
69411;BME280;56604;48.652;9.194;2023-05-19T10:50:48;96591.25;;;13.48;60.24
69411;BME280;56604;48.652;9.194;2023-05-19T10:53:17;96592.81;;;13.44;60.92
69411;BME280;56604;48.652;9.194;2023-05-19T10:55:45;96591.31;;;13.68;60.52
69411;BME280;56604;48.652;9.194;2023-05-19T10:58:11;96597.91;;;13.66;59.33
69411;BME280;56604;48.652;9.194;2023-05-19T11:00:38;96589.38;;;13.48;59.87
69411;BME280;56604;48.652;9.194;2023-05-19T11:03:16;96595.72;;;13.47;59.89
69411;BME280;56604;48.652;9.194;2023-05-19T11:05:47;96593.63;;;13.44;60.12
69411;BME280;56604;48.652;9.194;2023-05-19T11:08:15;96585.22;;;13.58;60.45
69411;BME280;56604;48.652;9.194;2023-05-19T11:10:43;96603.47;;;13.64;60.54
69411;BME280;56604;48.652;9.194;2023-05-19T11:13:17;96589.94;;;13.50;60.13
69411;BME280;56604;48.652;9.194;2023-05-19T11:15:44;96615.16;;;13.26;60.51
69411;BME280;56604;48.652;9.194;2023-05-19T11:18:12;96603.59;;;13.32;61.48
69411;BME280;56604;48.652;9.194;2023-05-19T11:20:39;96600.97;;;13.37;59.92
69411;BME280;56604;48.652;9.194;2023-05-19T11:23:13;96604.38;;;13.27;59.66
69411;BME280;56604;48.652;9.194;2023-05-19T11:25:46;96594.16;;;13.46;60.59
69411;BME280;56604;48.652;9.194;2023-05-19T11:28:15;96591.50;;;13.41;58.27
69411;BME280;56604;48.652;9.194;2023-05-19T11:30:42;96593.59;;;13.39;59.06
69411;BME280;56604;48.652;9.194;2023-05-19T11:33:09;96599.00;;;13.70;59.73
69411;BME280;56604;48.652;9.194;2023-05-19T11:35:34;96611.69;;;13.73;58.25
69411;BME280;56604;48.652;9.194;2023-05-19T11:38:01;96604.06;;;13.92;58.46
69411;BME280;56604;48.652;9.194;2023-05-19T11:40:27;96597.47;;;13.94;58.66
69411;BME280;56604;48.652;9.194;2023-05-19T11:42:53;96600.09;;;13.84;58.51
69411;BME280;56604;48.652;9.194;2023-05-19T11:45:26;96593.44;;;13.77;58.22
69411;BME280;56604;48.652;9.194;2023-05-19T11:47:54;96601.09;;;13.68;59.87
69411;BME280;56604;48.652;9.194;2023-05-19T11:50:21;96590.00;;;13.71;59.21
69411;BME280;56604;48.652;9.194;2023-05-19T11:52:46;96591.88;;;13.76;59.93
69411;BME280;56604;48.652;9.194;2023-05-19T11:55:19;96584.22;;;13.84;59.33
69411;BME280;56604;48.652;9.194;2023-05-19T11:57:59;96588.69;;;13.73;59.93
69411;BME280;56604;48.652;9.194;2023-05-19T12:00:27;96579.88;;;13.47;60.60
69411;BME280;56604;48.652;9.194;2023-05-19T12:02:52;96590.41;;;13.37;60.26
69411;BME280;56604;48.652;9.194;2023-05-19T12:05:20;96584.31;;;13.37;60.18
69411;BME280;56604;48.652;9.194;2023-05-19T12:07:47;96578.81;;;13.43;59.71
69411;BME280;56604;48.652;9.194;2023-05-19T12:10:18;96587.06;;;13.62;59.08
69411;BME280;56604;48.652;9.194;2023-05-19T12:12:45;96590.56;;;13.78;59.37
69411;BME280;56604;48.652;9.194;2023-05-19T12:15:10;96591.34;;;13.79;59.87
69411;BME280;56604;48.652;9.194;2023-05-19T12:17:36;96583.16;;;13.80;61.28
69411;BME280;56604;48.652;9.194;2023-05-19T12:20:01;96596.16;;;13.92;59.46
69411;BME280;56604;48.652;9.194;2023-05-19T12:22:29;96592.72;;;14.02;59.08
69411;BME280;56604;48.652;9.194;2023-05-19T12:24:54;96594.28;;;14.03;59.49
69411;BME280;56604;48.652;9.194;2023-05-19T12:27:24;96608.59;;;14.07;58.17
69411;BME280;56604;48.652;9.194;2023-05-19T12:29:53;96594.84;;;14.20;59.23
69411;BME280;56604;48.652;9.194;2023-05-19T12:32:26;96603.84;;;14.04;59.28
69411;BME280;56604;48.652;9.194;2023-05-19T12:34:52;96590.06;;;14.02;58.18
69411;BME280;56604;48.652;9.194;2023-05-19T12:37:18;96597.47;;;14.00;58.32
69411;BME280;56604;48.652;9.194;2023-05-19T12:39:43;96599.03;;;13.90;59.06
69411;BME280;56604;48.652;9.194;2023-05-19T12:42:10;96603.53;;;13.90;59.79
69411;BME280;56604;48.652;9.194;2023-05-19T12:44:43;96601.34;;;13.71;59.21
69411;BME280;56604;48.652;9.194;2023-05-19T12:47:10;96593.44;;;13.66;60.06
69411;BME280;56604;48.652;9.194;2023-05-19T12:49:36;96593.72;;;13.80;59.44
69411;BME280;56604;48.652;9.194;2023-05-19T12:52:02;96593.69;;;13.70;59.02
69411;BME280;56604;48.652;9.194;2023-05-19T12:54:32;96601.03;;;13.47;59.41
69411;BME280;56604;48.652;9.194;2023-05-19T12:56:58;96590.41;;;13.37;61.24
69411;BME280;56604;48.652;9.194;2023-05-19T12:59:23;96596.78;;;13.41;60.63
69411;BME280;56604;48.652;9.194;2023-05-19T13:01:58;96597.84;;;13.45;60.55
69411;BME280;56604;48.652;9.194;2023-05-19T13:04:24;96597.31;;;13.43;61.36
69411;BME280;56604;48.652;9.194;2023-05-19T13:06:51;96592.56;;;13.50;60.64
69411;BME280;56604;48.652;9.194;2023-05-19T13:09:17;96591.59;;;13.67;61.05
69411;BME280;56604;48.652;9.194;2023-05-19T13:11:43;96588.44;;;13.80;60.62
69411;BME280;56604;48.652;9.194;2023-05-19T13:14:09;96589.28;;;14.11;59.99
69411;BME280;56604;48.652;9.194;2023-05-19T13:16:34;96586.41;;;14.23;59.70
69411;BME280;56604;48.652;9.194;2023-05-19T13:18:59;96594.34;;;14.44;59.34